Capitol Logistics 261


KMCI
Kansas City International Airport
Kansas City, Missouri, US
KBOS
Logan International Airport
Boston, Massachusetts, US

Route Details

Aircraft Information
Primary: Boeing 767-300BDSF
Backup: Boeing 757-200SF
Route Data
Distance: 1090nm
Sched. Duration: 2h 39m
Avg. Duration: 2h 37m (-2m)
Times Flown: 3
Recm'd Route: LAKES2 SPI ROD KLYNE Q29 JHW Q82 PONCT JFUND2
Planned Altitude: 35,000ft
Origin Wx: KMCI 210953Z 21006KT 10SM CLR M09/M13 A3065 RMK AO2 SLP391 T10891133
Dest. Wx: KBOS 210954Z 33010G19KT 10SM CLR M07/M19 A3044 RMK AO2 SLP308 T10721194
Notes: METROAIR CARGO SUPPORT

Financial History
Total Freight: 253,135lbs
Average Load: 84,378lbs/flt
Fuel Used: 87,877lbs
Avg. Fuel Used: 29,292lbs/flt
Fuel Expense: $96,665
Avg. Fuel Expense: $32,222
Avg. Fuel Cost: $1.10/lbs
Total Gross Income: $346,619
Pilot Pay: $647
Total Expenses: $37,591
Total Revenue: $210,786
Average Revenue: $115,539.63